sensor_id;sensor_type;location;lat;lon;timestamp;P1;durP1;ratioP1;P2;durP2;ratioP2
27939;SDS011;15275;51.716;14.324;2022-10-31T00:00:21;19.70;;;8.77;;
27939;SDS011;15275;51.716;14.324;2022-10-31T00:02:47;16.77;;;8.85;;
27939;SDS011;15275;51.716;14.324;2022-10-31T00:05:13;16.25;;;8.23;;
27939;SDS011;15275;51.716;14.324;2022-10-31T00:07:39;21.20;;;8.55;;
27939;SDS011;15275;51.716;14.324;2022-10-31T00:10:05;16.90;;;8.77;;
27939;SDS011;15275;51.716;14.324;2022-10-31T00:12:31;16.55;;;9.05;;
27939;SDS011;15275;51.716;14.324;2022-10-31T00:14:57;15.73;;;9.35;;
27939;SDS011;15275;51.716;14.324;2022-10-31T00:17:23;16.45;;;8.52;;
27939;SDS011;15275;51.716;14.324;2022-10-31T00:19:49;17.33;;;9.02;;
27939;SDS011;15275;51.716;14.324;2022-10-31T00:22:15;17.48;;;8.82;;
27939;SDS011;15275;51.716;14.324;2022-10-31T00:24:40;13.00;;;8.40;;
27939;SDS011;15275;51.716;14.324;2022-10-31T00:27:06;15.65;;;8.88;;
27939;SDS011;15275;51.716;14.324;2022-10-31T00:29:32;15.18;;;8.65;;
27939;SDS011;15275;51.716;14.324;2022-10-31T00:31:58;22.10;;;9.02;;
27939;SDS011;15275;51.716;14.324;2022-10-31T00:34:24;18.13;;;8.40;;
27939;SDS011;15275;51.716;14.324;2022-10-31T00:36:49;18.08;;;8.73;;
27939;SDS011;15275;51.716;14.324;2022-10-31T00:39:15;15.95;;;8.45;;
27939;SDS011;15275;51.716;14.324;2022-10-31T00:41:41;16.58;;;7.97;;
27939;SDS011;15275;51.716;14.324;2022-10-31T00:44:07;16.42;;;8.25;;
27939;SDS011;15275;51.716;14.324;2022-10-31T00:46:32;15.30;;;7.82;;
27939;SDS011;15275;51.716;14.324;2022-10-31T00:48:58;17.83;;;8.35;;
27939;SDS011;15275;51.716;14.324;2022-10-31T00:51:24;14.90;;;7.65;;
27939;SDS011;15275;51.716;14.324;2022-10-31T00:53:50;14.07;;;8.23;;
27939;SDS011;15275;51.716;14.324;2022-10-31T00:56:16;16.13;;;8.70;;
27939;SDS011;15275;51.716;14.324;2022-10-31T00:58:41;14.38;;;7.68;;
27939;SDS011;15275;51.716;14.324;2022-10-31T01:01:07;16.58;;;8.38;;
27939;SDS011;15275;51.716;14.324;2022-10-31T01:03:33;18.17;;;8.05;;
27939;SDS011;15275;51.716;14.324;2022-10-31T01:06:01;13.13;;;7.13;;
27939;SDS011;15275;51.716;14.324;2022-10-31T01:08:28;13.93;;;7.70;;
27939;SDS011;15275;51.716;14.324;2022-10-31T01:11:02;13.93;;;8.13;;
27939;SDS011;15275;51.716;14.324;2022-10-31T01:13:37;16.88;;;8.32;;
27939;SDS011;15275;51.716;14.324;2022-10-31T01:16:04;15.60;;;7.60;;
27939;SDS011;15275;51.716;14.324;2022-10-31T01:18:33;15.27;;;7.07;;
27939;SDS011;15275;51.716;14.324;2022-10-31T01:21:00;22.83;;;7.72;;
27939;SDS011;15275;51.716;14.324;2022-10-31T01:23:30;16.95;;;8.25;;
27939;SDS011;15275;51.716;14.324;2022-10-31T01:26:00;15.48;;;7.10;;
27939;SDS011;15275;51.716;14.324;2022-10-31T01:28:35;13.50;;;7.93;;
27939;SDS011;15275;51.716;14.324;2022-10-31T01:31:03;13.70;;;6.93;;
27939;SDS011;15275;51.716;14.324;2022-10-31T01:33:32;17.85;;;7.80;;
27939;SDS011;15275;51.716;14.324;2022-10-31T01:35:59;18.40;;;7.72;;
27939;SDS011;15275;51.716;14.324;2022-10-31T01:38:25;14.68;;;7.22;;
27939;SDS011;15275;51.716;14.324;2022-10-31T01:40:51;13.75;;;6.78;;
27939;SDS011;15275;51.716;14.324;2022-10-31T01:43:17;15.05;;;7.53;;
27939;SDS011;15275;51.716;14.324;2022-10-31T01:45:45;17.60;;;7.53;;
27939;SDS011;15275;51.716;14.324;2022-10-31T01:48:16;12.40;;;6.97;;
27939;SDS011;15275;51.716;14.324;2022-10-31T01:50:46;12.10;;;7.22;;
27939;SDS011;15275;51.716;14.324;2022-10-31T01:53:14;16.77;;;7.65;;
27939;SDS011;15275;51.716;14.324;2022-10-31T01:55:41;10.32;;;6.72;;
27939;SDS011;15275;51.716;14.324;2022-10-31T01:58:14;13.93;;;6.28;;
27939;SDS011;15275;51.716;14.324;2022-10-31T02:00:46;11.00;;;6.82;;
27939;SDS011;15275;51.716;14.324;2022-10-31T02:03:15;16.15;;;7.10;;
27939;SDS011;15275;51.716;14.324;2022-10-31T02:05:42;15.38;;;6.30;;
27939;SDS011;15275;51.716;14.324;2022-10-31T02:10:59;16.63;;;7.68;;
27939;SDS011;15275;51.716;14.324;2022-10-31T02:13:27;15.20;;;6.57;;
27939;SDS011;15275;51.716;14.324;2022-10-31T02:15:56;9.27;;;5.75;;
27939;SDS011;15275;51.716;14.324;2022-10-31T02:18:24;16.15;;;7.28;;
27939;SDS011;15275;51.716;14.324;2022-10-31T02:21:02;16.42;;;6.68;;
27939;SDS011;15275;51.716;14.324;2022-10-31T02:36:52;10.43;;;5.78;;
27939;SDS011;15275;51.716;14.324;2022-10-31T02:41:56;11.95;;;5.65;;
27939;SDS011;15275;51.716;14.324;2022-10-31T02:47:39;15.45;;;5.80;;
27939;SDS011;15275;51.716;14.324;2022-10-31T02:50:11;15.30;;;6.03;;
27939;SDS011;15275;51.716;14.324;2022-10-31T02:52:43;9.43;;;4.93;;
27939;SDS011;15275;51.716;14.324;2022-10-31T03:00:35;10.07;;;5.95;;
27939;SDS011;15275;51.716;14.324;2022-10-31T03:06:33;7.28;;;4.95;;
27939;SDS011;15275;51.716;14.324;2022-10-31T03:18:23;7.32;;;4.22;;
27939;SDS011;15275;51.716;14.324;2022-10-31T03:21:16;8.75;;;4.35;;
27939;SDS011;15275;51.716;14.324;2022-10-31T03:23:46;8.60;;;4.28;;
27939;SDS011;15275;51.716;14.324;2022-10-31T03:26:15;12.20;;;5.05;;
27939;SDS011;15275;51.716;14.324;2022-10-31T03:28:48;12.63;;;5.95;;
27939;SDS011;15275;51.716;14.324;2022-10-31T03:31:16;9.40;;;5.10;;
27939;SDS011;15275;51.716;14.324;2022-10-31T03:33:44;8.20;;;4.72;;
27939;SDS011;15275;51.716;14.324;2022-10-31T03:36:13;12.02;;;4.93;;
27939;SDS011;15275;51.716;14.324;2022-10-31T03:38:41;11.98;;;4.35;;
27939;SDS011;15275;51.716;14.324;2022-10-31T03:41:11;10.32;;;5.05;;
27939;SDS011;15275;51.716;14.324;2022-10-31T03:43:46;10.82;;;5.03;;
27939;SDS011;15275;51.716;14.324;2022-10-31T03:46:22;9.63;;;4.72;;
27939;SDS011;15275;51.716;14.324;2022-10-31T03:48:49;12.93;;;5.18;;
27939;SDS011;15275;51.716;14.324;2022-10-31T03:51:21;9.93;;;4.53;;
27939;SDS011;15275;51.716;14.324;2022-10-31T03:53:56;11.23;;;5.05;;
27939;SDS011;15275;51.716;14.324;2022-10-31T03:56:55;11.98;;;4.78;;
27939;SDS011;15275;51.716;14.324;2022-10-31T03:59:26;8.05;;;4.32;;
27939;SDS011;15275;51.716;14.324;2022-10-31T04:02:09;10.35;;;4.20;;
27939;SDS011;15275;51.716;14.324;2022-10-31T04:04:40;7.80;;;4.03;;
27939;SDS011;15275;51.716;14.324;2022-10-31T04:07:06;12.38;;;4.57;;
27939;SDS011;15275;51.716;14.324;2022-10-31T04:09:35;9.48;;;4.68;;
27939;SDS011;15275;51.716;14.324;2022-10-31T04:12:03;11.00;;;4.63;;
27939;SDS011;15275;51.716;14.324;2022-10-31T04:14:33;9.50;;;4.30;;
27939;SDS011;15275;51.716;14.324;2022-10-31T04:17:03;11.18;;;5.00;;
27939;SDS011;15275;51.716;14.324;2022-10-31T04:19:34;10.32;;;4.45;;
27939;SDS011;15275;51.716;14.324;2022-10-31T04:22:00;15.30;;;4.63;;
27939;SDS011;15275;51.716;14.324;2022-10-31T04:24:26;10.45;;;4.15;;
27939;SDS011;15275;51.716;14.324;2022-10-31T04:26:52;11.57;;;4.50;;
27939;SDS011;15275;51.716;14.324;2022-10-31T04:29:18;6.80;;;3.75;;
27939;SDS011;15275;51.716;14.324;2022-10-31T04:31:44;9.48;;;4.63;;
27939;SDS011;15275;51.716;14.324;2022-10-31T04:34:10;7.43;;;4.30;;
27939;SDS011;15275;51.716;14.324;2022-10-31T04:36:36;8.95;;;3.78;;
27939;SDS011;15275;51.716;14.324;2022-10-31T04:39:01;9.68;;;4.50;;
27939;SDS011;15275;51.716;14.324;2022-10-31T04:41:27;7.32;;;4.13;;
27939;SDS011;15275;51.716;14.324;2022-10-31T04:43:53;9.27;;;4.07;;
27939;SDS011;15275;51.716;14.324;2022-10-31T04:46:19;7.68;;;3.75;;
27939;SDS011;15275;51.716;14.324;2022-10-31T04:48:45;9.30;;;3.97;;
27939;SDS011;15275;51.716;14.324;2022-10-31T04:51:11;9.68;;;4.18;;
27939;SDS011;15275;51.716;14.324;2022-10-31T04:53:37;12.15;;;4.22;;
27939;SDS011;15275;51.716;14.324;2022-10-31T04:56:03;9.23;;;4.53;;
27939;SDS011;15275;51.716;14.324;2022-10-31T04:58:29;16.45;;;4.38;;
27939;SDS011;15275;51.716;14.324;2022-10-31T05:00:55;9.32;;;4.10;;
27939;SDS011;15275;51.716;14.324;2022-10-31T05:03:22;9.95;;;4.20;;
27939;SDS011;15275;51.716;14.324;2022-10-31T05:05:48;9.27;;;4.07;;
27939;SDS011;15275;51.716;14.324;2022-10-31T05:08:15;12.38;;;4.65;;
27939;SDS011;15275;51.716;14.324;2022-10-31T05:10:41;8.38;;;3.97;;
27939;SDS011;15275;51.716;14.324;2022-10-31T05:13:06;6.35;;;3.97;;
27939;SDS011;15275;51.716;14.324;2022-10-31T05:15:33;7.10;;;4.30;;
27939;SDS011;15275;51.716;14.324;2022-10-31T05:17:59;6.47;;;4.10;;
27939;SDS011;15275;51.716;14.324;2022-10-31T05:20:26;10.07;;;4.53;;
27939;SDS011;15275;51.716;14.324;2022-10-31T05:22:55;9.27;;;4.40;;
27939;SDS011;15275;51.716;14.324;2022-10-31T05:25:23;12.45;;;4.00;;
27939;SDS011;15275;51.716;14.324;2022-10-31T05:27:52;7.53;;;3.95;;
27939;SDS011;15275;51.716;14.324;2022-10-31T05:30:21;12.05;;;5.10;;
27939;SDS011;15275;51.716;14.324;2022-10-31T05:32:50;8.73;;;4.53;;
27939;SDS011;15275;51.716;14.324;2022-10-31T05:35:20;11.52;;;4.18;;
27939;SDS011;15275;51.716;14.324;2022-10-31T05:37:51;8.52;;;4.28;;
27939;SDS011;15275;51.716;14.324;2022-10-31T05:40:18;8.50;;;4.03;;
27939;SDS011;15275;51.716;14.324;2022-10-31T05:42:45;5.68;;;3.60;;
27939;SDS011;15275;51.716;14.324;2022-10-31T05:45:12;11.68;;;4.53;;
27939;SDS011;15275;51.716;14.324;2022-10-31T05:47:40;11.35;;;4.38;;
27939;SDS011;15275;51.716;14.324;2022-10-31T05:50:07;7.53;;;3.95;;
27939;SDS011;15275;51.716;14.324;2022-10-31T05:52:34;13.52;;;4.13;;
27939;SDS011;15275;51.716;14.324;2022-10-31T05:55:01;14.32;;;4.53;;
27939;SDS011;15275;51.716;14.324;2022-10-31T05:57:27;11.55;;;4.00;;
27939;SDS011;15275;51.716;14.324;2022-10-31T05:59:54;10.75;;;4.60;;
27939;SDS011;15275;51.716;14.324;2022-10-31T06:02:20;9.25;;;4.03;;
27939;SDS011;15275;51.716;14.324;2022-10-31T06:04:47;7.03;;;3.47;;
27939;SDS011;15275;51.716;14.324;2022-10-31T06:07:13;8.35;;;4.25;;
27939;SDS011;15275;51.716;14.324;2022-10-31T06:09:39;10.88;;;4.45;;
27939;SDS011;15275;51.716;14.324;2022-10-31T06:12:05;26.27;;;5.45;;
27939;SDS011;15275;51.716;14.324;2022-10-31T06:14:31;6.43;;;3.72;;
27939;SDS011;15275;51.716;14.324;2022-10-31T06:16:57;9.07;;;3.72;;
27939;SDS011;15275;51.716;14.324;2022-10-31T06:19:23;11.63;;;5.78;;
27939;SDS011;15275;51.716;14.324;2022-10-31T06:21:49;11.35;;;4.45;;
27939;SDS011;15275;51.716;14.324;2022-10-31T06:24:14;7.68;;;4.35;;
27939;SDS011;15275;51.716;14.324;2022-10-31T06:26:40;8.45;;;4.40;;
27939;SDS011;15275;51.716;14.324;2022-10-31T06:29:06;7.78;;;4.70;;
27939;SDS011;15275;51.716;14.324;2022-10-31T06:31:32;9.63;;;4.38;;
27939;SDS011;15275;51.716;14.324;2022-10-31T06:33:58;6.20;;;4.55;;
27939;SDS011;15275;51.716;14.324;2022-10-31T06:36:24;8.73;;;4.13;;
27939;SDS011;15275;51.716;14.324;2022-10-31T06:38:50;8.55;;;4.00;;
27939;SDS011;15275;51.716;14.324;2022-10-31T06:41:16;8.68;;;4.03;;
27939;SDS011;15275;51.716;14.324;2022-10-31T06:43:41;10.05;;;4.13;;
27939;SDS011;15275;51.716;14.324;2022-10-31T06:46:07;8.95;;;4.13;;
27939;SDS011;15275;51.716;14.324;2022-10-31T06:48:33;6.18;;;3.90;;
27939;SDS011;15275;51.716;14.324;2022-10-31T06:51:00;11.18;;;4.55;;
27939;SDS011;15275;51.716;14.324;2022-10-31T06:53:27;8.82;;;3.90;;
27939;SDS011;15275;51.716;14.324;2022-10-31T06:55:57;11.73;;;4.50;;
27939;SDS011;15275;51.716;14.324;2022-10-31T06:58:24;11.05;;;4.10;;
27939;SDS011;15275;51.716;14.324;2022-10-31T07:00:50;10.93;;;3.90;;
27939;SDS011;15275;51.716;14.324;2022-10-31T07:03:16;6.57;;;4.00;;
27939;SDS011;15275;51.716;14.324;2022-10-31T07:05:42;11.40;;;4.32;;
27939;SDS011;15275;51.716;14.324;2022-10-31T07:08:10;9.10;;;4.00;;
27939;SDS011;15275;51.716;14.324;2022-10-31T07:10:38;7.25;;;4.72;;
27939;SDS011;15275;51.716;14.324;2022-10-31T07:13:06;9.45;;;3.92;;
27939;SDS011;15275;51.716;14.324;2022-10-31T07:15:38;12.90;;;3.90;;
27939;SDS011;15275;51.716;14.324;2022-10-31T07:18:06;7.53;;;4.00;;
27939;SDS011;15275;51.716;14.324;2022-10-31T07:20:34;11.25;;;4.88;;
27939;SDS011;15275;51.716;14.324;2022-10-31T07:23:00;12.63;;;4.30;;
27939;SDS011;15275;51.716;14.324;2022-10-31T07:25:27;8.52;;;4.70;;
27939;SDS011;15275;51.716;14.324;2022-10-31T07:27:53;12.60;;;5.05;;
27939;SDS011;15275;51.716;14.324;2022-10-31T07:30:19;9.85;;;4.13;;
27939;SDS011;15275;51.716;14.324;2022-10-31T07:32:46;8.45;;;4.15;;
27939;SDS011;15275;51.716;14.324;2022-10-31T07:35:15;10.88;;;5.30;;
27939;SDS011;15275;51.716;14.324;2022-10-31T07:37:44;10.13;;;4.22;;
27939;SDS011;15275;51.716;14.324;2022-10-31T07:40:10;12.52;;;4.55;;
27939;SDS011;15275;51.716;14.324;2022-10-31T07:42:38;10.32;;;4.72;;
27939;SDS011;15275;51.716;14.324;2022-10-31T07:45:06;9.40;;;4.40;;
27939;SDS011;15275;51.716;14.324;2022-10-31T07:47:41;7.30;;;4.38;;
27939;SDS011;15275;51.716;14.324;2022-10-31T07:50:10;8.07;;;4.63;;
27939;SDS011;15275;51.716;14.324;2022-10-31T07:52:42;9.45;;;4.28;;
27939;SDS011;15275;51.716;14.324;2022-10-31T07:55:08;8.77;;;4.97;;
27939;SDS011;15275;51.716;14.324;2022-10-31T07:57:35;8.75;;;5.15;;
27939;SDS011;15275;51.716;14.324;2022-10-31T08:00:05;10.65;;;4.55;;
27939;SDS011;15275;51.716;14.324;2022-10-31T08:02:35;12.98;;;4.90;;
27939;SDS011;15275;51.716;14.324;2022-10-31T08:05:01;11.38;;;4.95;;
27939;SDS011;15275;51.716;14.324;2022-10-31T08:07:27;11.20;;;4.68;;
27939;SDS011;15275;51.716;14.324;2022-10-31T08:09:54;12.77;;;4.90;;
27939;SDS011;15275;51.716;14.324;2022-10-31T08:12:20;7.72;;;4.57;;
27939;SDS011;15275;51.716;14.324;2022-10-31T08:14:46;7.38;;;4.82;;
27939;SDS011;15275;51.716;14.324;2022-10-31T08:17:12;7.80;;;4.78;;
27939;SDS011;15275;51.716;14.324;2022-10-31T08:19:38;12.52;;;5.35;;
27939;SDS011;15275;51.716;14.324;2022-10-31T08:22:04;10.77;;;4.90;;
27939;SDS011;15275;51.716;14.324;2022-10-31T08:24:30;7.53;;;4.97;;
27939;SDS011;15275;51.716;14.324;2022-10-31T08:26:56;12.23;;;5.68;;
27939;SDS011;15275;51.716;14.324;2022-10-31T08:29:22;12.63;;;4.93;;
27939;SDS011;15275;51.716;14.324;2022-10-31T08:31:48;10.32;;;5.00;;
27939;SDS011;15275;51.716;14.324;2022-10-31T08:34:14;10.85;;;5.18;;
27939;SDS011;15275;51.716;14.324;2022-10-31T08:36:39;9.50;;;4.72;;
27939;SDS011;15275;51.716;14.324;2022-10-31T08:39:07;14.65;;;5.15;;
27939;SDS011;15275;51.716;14.324;2022-10-31T08:41:33;8.70;;;5.40;;
27939;SDS011;15275;51.716;14.324;2022-10-31T08:44:00;9.77;;;5.30;;
27939;SDS011;15275;51.716;14.324;2022-10-31T08:46:26;10.75;;;4.78;;
27939;SDS011;15275;51.716;14.324;2022-10-31T08:48:52;8.77;;;5.03;;
27939;SDS011;15275;51.716;14.324;2022-10-31T08:51:18;15.68;;;5.97;;
27939;SDS011;15275;51.716;14.324;2022-10-31T08:53:43;11.00;;;5.60;;
27939;SDS011;15275;51.716;14.324;2022-10-31T08:56:09;12.55;;;5.90;;
27939;SDS011;15275;51.716;14.324;2022-10-31T08:58:35;12.77;;;5.97;;
27939;SDS011;15275;51.716;14.324;2022-10-31T09:01:01;15.32;;;5.68;;
27939;SDS011;15275;51.716;14.324;2022-10-31T09:03:28;8.73;;;4.85;;
27939;SDS011;15275;51.716;14.324;2022-10-31T09:05:59;15.70;;;5.80;;
27939;SDS011;15275;51.716;14.324;2022-10-31T09:08:31;12.57;;;6.32;;
27939;SDS011;15275;51.716;14.324;2022-10-31T09:10:58;10.85;;;6.07;;
27939;SDS011;15275;51.716;14.324;2022-10-31T09:13:25;12.52;;;6.22;;
27939;SDS011;15275;51.716;14.324;2022-10-31T09:15:51;10.38;;;5.63;;
27939;SDS011;15275;51.716;14.324;2022-10-31T09:18:18;14.70;;;6.88;;
27939;SDS011;15275;51.716;14.324;2022-10-31T09:20:46;13.40;;;6.43;;
27939;SDS011;15275;51.716;14.324;2022-10-31T09:23:15;12.93;;;6.40;;
27939;SDS011;15275;51.716;14.324;2022-10-31T09:25:46;13.70;;;6.57;;
27939;SDS011;15275;51.716;14.324;2022-10-31T09:28:14;12.50;;;6.43;;
27939;SDS011;15275;51.716;14.324;2022-10-31T09:30:45;10.90;;;6.18;;
27939;SDS011;15275;51.716;14.324;2022-10-31T09:33:16;16.35;;;7.13;;
27939;SDS011;15275;51.716;14.324;2022-10-31T09:35:43;9.70;;;6.20;;
27939;SDS011;15275;51.716;14.324;2022-10-31T09:38:10;11.60;;;6.85;;
27939;SDS011;15275;51.716;14.324;2022-10-31T09:48:31;11.90;;;6.75;;
27939;SDS011;15275;51.716;14.324;2022-10-31T09:51:33;9.55;;;6.35;;
27939;SDS011;15275;51.716;14.324;2022-10-31T09:57:03;9.85;;;6.15;;
27939;SDS011;15275;51.716;14.324;2022-10-31T09:59:32;10.15;;;6.65;;
27939;SDS011;15275;51.716;14.324;2022-10-31T10:10:17;10.25;;;6.55;;
27939;SDS011;15275;51.716;14.324;2022-10-31T10:16:03;16.40;;;7.88;;
27939;SDS011;15275;51.716;14.324;2022-10-31T10:29:52;12.43;;;6.57;;
27939;SDS011;15275;51.716;14.324;2022-10-31T10:32:28;13.63;;;6.70;;
27939;SDS011;15275;51.716;14.324;2022-10-31T10:34:59;9.98;;;6.35;;
27939;SDS011;15275;51.716;14.324;2022-10-31T10:37:43;13.48;;;5.82;;
27939;SDS011;15275;51.716;14.324;2022-10-31T10:40:19;13.13;;;6.72;;
